createdAt,value
2017-12-31T00:00:21.887Z,994.16
2017-12-31T00:01:21.880Z,994.25
2017-12-31T00:02:21.876Z,994.36
2017-12-31T00:03:21.878Z,994.33
2017-12-31T00:04:21.872Z,994.36
2017-12-31T00:05:21.866Z,994.30
2017-12-31T00:06:21.871Z,994.33
2017-12-31T00:07:21.863Z,994.43
2017-12-31T00:08:21.863Z,994.36
2017-12-31T00:09:21.858Z,994.48
2017-12-31T00:10:21.854Z,994.50
2017-12-31T00:11:21.861Z,994.48
2017-12-31T00:12:21.849Z,994.53
2017-12-31T00:13:21.847Z,994.60
2017-12-31T00:14:21.843Z,994.65
2017-12-31T00:15:21.842Z,994.55
2017-12-31T00:16:21.839Z,994.69
2017-12-31T00:17:21.839Z,994.71
2017-12-31T00:18:21.830Z,994.78
2017-12-31T00:19:21.832Z,994.76
2017-12-31T00:20:21.830Z,994.71
2017-12-31T00:21:21.826Z,994.88
2017-12-31T00:22:21.825Z,994.83
2017-12-31T00:23:21.828Z,994.94
2017-12-31T00:24:21.809Z,994.99
2017-12-31T00:25:21.811Z,994.92
2017-12-31T00:26:21.802Z,994.96
2017-12-31T00:27:21.805Z,994.96
2017-12-31T00:28:21.804Z,994.94
2017-12-31T00:29:21.798Z,995.01
2017-12-31T00:30:21.798Z,995.00
2017-12-31T00:31:21.795Z,995.07
2017-12-31T00:32:21.793Z,995.08
2017-12-31T00:33:21.787Z,995.04
2017-12-31T00:34:21.789Z,995.08
2017-12-31T00:35:21.783Z,995.14
2017-12-31T00:36:21.781Z,995.10
2017-12-31T00:37:21.774Z,995.13
2017-12-31T00:38:21.771Z,995.14
2017-12-31T00:39:21.779Z,995.17
2017-12-31T00:40:21.768Z,995.13
2017-12-31T00:41:21.764Z,995.19
2017-12-31T00:42:21.761Z,995.25
2017-12-31T00:43:21.761Z,995.24
2017-12-31T00:44:21.757Z,995.25
2017-12-31T00:45:21.755Z,995.25
2017-12-31T00:46:21.744Z,995.27
2017-12-31T00:47:21.747Z,995.28
2017-12-31T00:48:21.744Z,995.39
2017-12-31T00:49:21.736Z,995.34
2017-12-31T00:50:21.737Z,995.38
2017-12-31T00:51:21.733Z,995.40
2017-12-31T00:52:21.732Z,995.52
2017-12-31T00:53:21.728Z,995.59
2017-12-31T00:54:21.725Z,995.53
2017-12-31T00:55:21.722Z,995.51
2017-12-31T00:56:21.721Z,995.51
2017-12-31T00:57:21.717Z,995.61
2017-12-31T00:58:21.710Z,995.58
2017-12-31T00:59:21.710Z,995.60
2017-12-31T01:00:21.708Z,995.73
2017-12-31T01:01:21.704Z,995.65
2017-12-31T01:02:21.701Z,995.70
2017-12-31T01:03:21.695Z,995.75
2017-12-31T01:04:21.698Z,995.74
2017-12-31T01:05:21.692Z,995.83
2017-12-31T01:06:21.689Z,995.75
2017-12-31T01:07:21.686Z,995.79
2017-12-31T01:08:21.682Z,995.85
2017-12-31T01:09:21.677Z,995.82
2017-12-31T01:10:21.676Z,995.87
2017-12-31T01:11:21.675Z,995.88
2017-12-31T01:12:21.734Z,995.93
2017-12-31T01:13:21.666Z,995.89
2017-12-31T01:14:21.665Z,995.95
2017-12-31T01:15:21.666Z,995.95
2017-12-31T01:16:21.665Z,996.06
2017-12-31T01:17:21.655Z,996.15
2017-12-31T01:18:21.654Z,996.15
2017-12-31T01:19:21.645Z,996.16
2017-12-31T01:20:21.643Z,996.23
2017-12-31T01:21:21.638Z,996.21
2017-12-31T01:22:21.642Z,996.28
2017-12-31T01:23:21.634Z,996.24
2017-12-31T01:24:21.641Z,996.32
2017-12-31T01:25:21.634Z,996.34
2017-12-31T01:26:21.626Z,996.36
2017-12-31T01:27:21.624Z,996.29
2017-12-31T01:28:21.621Z,996.41
2017-12-31T01:29:21.614Z,996.33
2017-12-31T01:30:21.614Z,996.29
2017-12-31T01:31:21.612Z,996.34
2017-12-31T01:32:21.619Z,996.49
2017-12-31T01:33:21.605Z,996.46
2017-12-31T01:34:21.601Z,996.38
2017-12-31T01:35:21.598Z,996.49
2017-12-31T01:36:21.596Z,996.48
2017-12-31T01:37:21.591Z,996.51
2017-12-31T01:38:21.590Z,996.56
2017-12-31T01:39:21.584Z,996.54
2017-12-31T01:40:21.581Z,996.57
2017-12-31T01:41:21.581Z,996.59
2017-12-31T01:42:21.578Z,996.67
2017-12-31T01:43:21.576Z,996.63
2017-12-31T01:44:21.569Z,996.66
2017-12-31T01:45:21.566Z,996.59
2017-12-31T01:46:21.573Z,996.62
2017-12-31T01:47:21.560Z,996.63
2017-12-31T01:48:21.557Z,996.64
2017-12-31T01:49:21.555Z,996.74
2017-12-31T01:50:21.549Z,996.75
2017-12-31T01:51:21.547Z,996.71
2017-12-31T01:52:21.545Z,996.76
2017-12-31T01:53:21.540Z,996.88
2017-12-31T01:54:21.538Z,996.76
2017-12-31T01:55:21.534Z,996.71
2017-12-31T01:56:21.533Z,996.63
2017-12-31T01:57:21.528Z,996.64
2017-12-31T01:58:21.525Z,996.56
2017-12-31T01:59:21.524Z,996.61
2017-12-31T02:00:21.546Z,996.58
2017-12-31T02:01:21.523Z,996.62
2017-12-31T02:02:21.512Z,996.57
2017-12-31T02:03:21.508Z,996.59
2017-12-31T02:04:21.504Z,996.62
2017-12-31T02:05:21.502Z,996.49
2017-12-31T02:06:21.499Z,996.65
2017-12-31T02:07:21.497Z,996.64
2017-12-31T02:08:21.492Z,996.70
2017-12-31T02:09:21.489Z,996.71
2017-12-31T02:10:21.485Z,996.67
2017-12-31T02:11:21.480Z,996.77
2017-12-31T02:12:21.478Z,996.78
2017-12-31T02:13:21.474Z,996.80
2017-12-31T02:14:21.473Z,996.96
2017-12-31T02:15:21.469Z,997.00
2017-12-31T02:16:21.467Z,997.04
2017-12-31T02:17:21.458Z,997.02
2017-12-31T02:18:21.463Z,997.08
2017-12-31T02:19:21.532Z,997.08
2017-12-31T02:20:21.493Z,997.13
2017-12-31T02:21:21.446Z,997.12
2017-12-31T02:22:21.448Z,997.12
2017-12-31T02:23:21.442Z,997.09
2017-12-31T02:24:21.439Z,997.09
2017-12-31T02:25:21.434Z,997.05
2017-12-31T02:26:21.432Z,997.07
2017-12-31T02:27:21.426Z,997.08
2017-12-31T02:28:21.431Z,997.09
2017-12-31T02:29:21.417Z,997.19
2017-12-31T02:30:21.415Z,997.22
2017-12-31T02:31:21.410Z,997.25
2017-12-31T02:32:21.411Z,997.24
2017-12-31T02:33:21.405Z,997.26
2017-12-31T02:34:21.401Z,997.25
2017-12-31T02:35:21.398Z,997.27
2017-12-31T02:36:21.394Z,997.32
2017-12-31T02:37:21.389Z,997.33
2017-12-31T02:38:21.384Z,997.37
2017-12-31T02:39:21.384Z,997.41
2017-12-31T02:40:21.381Z,997.39
2017-12-31T02:41:21.374Z,997.42
2017-12-31T02:42:21.371Z,997.39
2017-12-31T02:43:21.372Z,997.40
2017-12-31T02:44:21.368Z,997.42
2017-12-31T02:45:21.362Z,997.51
2017-12-31T02:46:21.357Z,997.55
2017-12-31T02:47:21.355Z,997.50
2017-12-31T02:48:21.347Z,997.52
2017-12-31T02:49:21.350Z,997.57
2017-12-31T02:50:21.345Z,997.55
2017-12-31T02:51:21.338Z,997.57
2017-12-31T02:52:21.337Z,997.61
2017-12-31T02:53:21.335Z,997.60
2017-12-31T02:54:21.330Z,997.60
2017-12-31T02:55:21.325Z,997.63
2017-12-31T02:56:21.321Z,997.60
2017-12-31T02:57:21.326Z,997.63
2017-12-31T02:58:21.314Z,997.64
2017-12-31T02:59:21.311Z,997.63
2017-12-31T03:00:21.309Z,997.61
2017-12-31T03:01:21.302Z,997.61
2017-12-31T03:02:21.301Z,997.60
2017-12-31T03:03:21.296Z,997.60
2017-12-31T03:04:21.296Z,997.71
2017-12-31T03:05:21.295Z,997.75
2017-12-31T03:06:21.287Z,997.82
2017-12-31T03:07:21.283Z,997.91
2017-12-31T03:08:21.279Z,997.90
2017-12-31T03:09:21.276Z,997.91
2017-12-31T03:10:21.267Z,997.86
2017-12-31T03:11:21.320Z,997.97
2017-12-31T03:12:21.265Z,997.96
2017-12-31T03:13:21.270Z,997.91
2017-12-31T03:14:21.261Z,997.91
2017-12-31T03:15:21.260Z,997.87
2017-12-31T03:16:21.255Z,997.97
2017-12-31T03:17:21.246Z,997.92
2017-12-31T03:18:21.254Z,997.94
2017-12-31T03:19:21.242Z,997.93
2017-12-31T03:20:21.235Z,997.95
2017-12-31T03:21:21.236Z,997.97
2017-12-31T03:22:21.227Z,997.95
2017-12-31T03:23:21.223Z,997.94
2017-12-31T03:24:21.222Z,997.96
2017-12-31T03:25:21.214Z,997.96
2017-12-31T03:26:21.220Z,998.01
2017-12-31T03:27:21.206Z,998.10
2017-12-31T03:28:21.205Z,998.06
2017-12-31T03:29:21.197Z,998.09
2017-12-31T03:30:21.194Z,998.07
2017-12-31T03:31:21.198Z,998.08
2017-12-31T03:32:21.187Z,998.07
2017-12-31T03:33:21.184Z,998.02
2017-12-31T03:34:21.178Z,998.01
2017-12-31T03:35:21.205Z,998.07
2017-12-31T03:36:21.173Z,998.11
2017-12-31T03:37:21.166Z,998.12
2017-12-31T03:38:21.162Z,998.18
2017-12-31T03:39:21.160Z,998.22
2017-12-31T03:40:21.153Z,998.19
2017-12-31T03:41:21.151Z,998.23
2017-12-31T03:42:21.147Z,998.26
2017-12-31T03:43:21.148Z,998.32
2017-12-31T03:44:21.139Z,998.33
2017-12-31T03:45:21.138Z,998.36
2017-12-31T03:46:21.132Z,998.38
2017-12-31T03:47:21.131Z,998.38
2017-12-31T03:48:21.126Z,998.44
2017-12-31T03:49:21.112Z,998.43
2017-12-31T03:50:21.115Z,998.37
2017-12-31T03:51:21.110Z,998.40
2017-12-31T03:52:21.105Z,998.42
2017-12-31T03:53:21.105Z,998.45
2017-12-31T03:54:21.097Z,998.44
2017-12-31T03:55:21.094Z,998.51
2017-12-31T03:56:21.091Z,998.50
2017-12-31T03:57:21.083Z,998.53
2017-12-31T03:58:21.076Z,998.48
2017-12-31T03:59:21.077Z,998.50
2017-12-31T04:00:21.074Z,998.55
2017-12-31T04:01:21.090Z,998.50
2017-12-31T04:02:21.069Z,998.48
2017-12-31T04:03:21.094Z,998.49
2017-12-31T04:04:21.061Z,998.56
2017-12-31T04:05:21.054Z,998.53
2017-12-31T04:06:21.049Z,998.52
2017-12-31T04:07:21.042Z,998.46
2017-12-31T04:08:21.039Z,998.45
2017-12-31T04:09:21.059Z,998.47
2017-12-31T04:10:21.032Z,998.46
2017-12-31T04:11:21.027Z,998.51
2017-12-31T04:12:21.021Z,998.55
2017-12-31T04:13:21.019Z,998.54
2017-12-31T04:14:21.015Z,998.61
2017-12-31T04:15:21.009Z,998.65
2017-12-31T04:16:21.007Z,998.64
2017-12-31T04:17:21.000Z,998.61
2017-12-31T04:18:20.994Z,998.66
2017-12-31T04:19:20.993Z,998.67
2017-12-31T04:20:20.992Z,998.67
2017-12-31T04:21:20.985Z,998.71
2017-12-31T04:22:20.981Z,998.69
2017-12-31T04:23:20.987Z,998.74
2017-12-31T04:24:21.009Z,998.76
2017-12-31T04:25:20.971Z,998.76
2017-12-31T04:26:20.965Z,998.78
2017-12-31T04:27:20.977Z,998.78
2017-12-31T04:28:20.957Z,998.81
2017-12-31T04:29:20.951Z,998.81
2017-12-31T04:30:20.947Z,998.87
2017-12-31T04:31:20.943Z,998.91
2017-12-31T04:32:20.941Z,998.93
2017-12-31T04:33:20.937Z,998.97
2017-12-31T04:34:20.930Z,999.07
2017-12-31T04:35:20.932Z,999.09
2017-12-31T04:36:20.918Z,999.11
2017-12-31T04:37:20.916Z,999.15
2017-12-31T04:38:20.912Z,999.12
2017-12-31T04:39:20.910Z,999.15
2017-12-31T04:40:20.913Z,999.11
2017-12-31T04:41:20.901Z,999.12
2017-12-31T04:42:20.898Z,999.15
2017-12-31T04:43:20.893Z,999.19
2017-12-31T04:44:20.888Z,999.17
2017-12-31T04:45:20.883Z,999.17
2017-12-31T04:46:20.880Z,999.08
2017-12-31T04:47:20.877Z,999.06
2017-12-31T04:48:20.879Z,999.04
2017-12-31T04:49:20.874Z,999.02
2017-12-31T04:50:20.864Z,998.98
2017-12-31T04:51:20.862Z,998.97
2017-12-31T04:52:20.859Z,999.01
2017-12-31T04:53:20.850Z,999.06
2017-12-31T04:54:20.846Z,999.09
2017-12-31T04:55:20.841Z,999.08
2017-12-31T04:56:20.836Z,999.07
2017-12-31T04:57:20.834Z,999.10
2017-12-31T04:58:20.830Z,999.08
2017-12-31T04:59:20.834Z,999.08
2017-12-31T05:00:20.823Z,999.09
2017-12-31T05:01:20.819Z,999.19
2017-12-31T05:02:20.814Z,999.22
2017-12-31T05:03:20.812Z,999.22
2017-12-31T05:04:20.806Z,999.21
2017-12-31T05:05:20.801Z,999.22
2017-12-31T05:06:20.794Z,999.17
2017-12-31T05:07:20.792Z,999.17
2017-12-31T05:08:20.794Z,999.16
2017-12-31T05:09:20.784Z,999.15
2017-12-31T05:10:20.785Z,999.15
2017-12-31T05:11:20.780Z,999.15
2017-12-31T05:12:20.771Z,999.16
2017-12-31T05:13:20.762Z,999.19
2017-12-31T05:14:20.767Z,999.24
2017-12-31T05:15:20.759Z,999.24
2017-12-31T05:16:20.755Z,999.22
2017-12-31T05:17:20.750Z,999.19
2017-12-31T05:18:20.752Z,999.19
2017-12-31T05:19:20.744Z,999.17
2017-12-31T05:20:20.738Z,999.19
2017-12-31T05:21:20.731Z,999.19
2017-12-31T05:22:20.729Z,999.20
2017-12-31T05:23:20.778Z,999.19
2017-12-31T05:24:20.722Z,999.16
2017-12-31T05:25:20.716Z,999.22
2017-12-31T05:26:20.713Z,999.22
2017-12-31T05:27:20.707Z,999.21
2017-12-31T05:28:20.699Z,999.23
2017-12-31T05:29:20.699Z,999.25
2017-12-31T05:30:20.690Z,999.27
2017-12-31T05:31:20.692Z,999.24
2017-12-31T05:32:20.683Z,999.30
2017-12-31T05:33:20.680Z,999.34
2017-12-31T05:34:20.677Z,999.34
2017-12-31T05:35:20.674Z,999.38
2017-12-31T05:36:20.671Z,999.34
2017-12-31T05:37:20.665Z,999.35
2017-12-31T05:38:20.666Z,999.38
2017-12-31T05:39:20.658Z,999.39
2017-12-31T05:40:20.653Z,999.37
2017-12-31T05:41:20.650Z,999.35
2017-12-31T05:42:20.645Z,999.32
2017-12-31T05:43:20.637Z,999.32
2017-12-31T05:44:20.635Z,999.37
2017-12-31T05:45:20.629Z,999.33
2017-12-31T05:46:20.626Z,999.28
2017-12-31T05:47:20.626Z,999.31
2017-12-31T05:48:20.636Z,999.30
2017-12-31T05:49:20.613Z,999.32
2017-12-31T05:50:20.610Z,999.31
2017-12-31T05:51:20.605Z,999.29
2017-12-31T05:52:20.602Z,999.36
2017-12-31T05:53:20.598Z,999.33
2017-12-31T05:54:20.592Z,999.35
2017-12-31T05:55:20.586Z,999.37
2017-12-31T05:56:20.585Z,999.36
2017-12-31T05:57:20.579Z,999.40
2017-12-31T05:58:20.578Z,999.40
2017-12-31T05:59:20.572Z,999.42
2017-12-31T06:00:20.569Z,999.46
2017-12-31T06:01:20.564Z,999.47
2017-12-31T06:02:20.558Z,999.46
2017-12-31T06:03:20.559Z,999.48
2017-12-31T06:04:20.545Z,999.50
2017-12-31T06:05:20.846Z,999.58
2017-12-31T06:06:20.547Z,999.54
2017-12-31T06:07:20.536Z,999.50
2017-12-31T06:08:20.531Z,999.55
2017-12-31T06:09:20.522Z,999.53
2017-12-31T06:10:20.549Z,999.55
2017-12-31T06:11:20.520Z,999.55
2017-12-31T06:12:20.512Z,999.58
2017-12-31T06:13:20.510Z,999.52
2017-12-31T06:14:20.506Z,999.52
2017-12-31T06:15:20.504Z,999.48
2017-12-31T06:16:20.497Z,999.47
2017-12-31T06:17:20.494Z,999.47
2017-12-31T06:18:20.488Z,999.50
2017-12-31T06:19:20.483Z,999.56
2017-12-31T06:20:20.480Z,999.58
2017-12-31T06:21:20.477Z,999.60
2017-12-31T06:22:20.471Z,999.61
2017-12-31T06:23:20.465Z,999.60
2017-12-31T06:24:20.461Z,999.61
2017-12-31T06:25:20.456Z,999.62
2017-12-31T06:26:20.453Z,999.60
2017-12-31T06:27:20.450Z,999.61
2017-12-31T06:28:20.441Z,999.62
2017-12-31T06:29:20.437Z,999.64
2017-12-31T06:30:20.432Z,999.70
2017-12-31T06:31:20.432Z,999.75
2017-12-31T06:32:20.430Z,999.79
2017-12-31T06:33:20.422Z,999.79
2017-12-31T06:34:20.417Z,999.78
2017-12-31T06:35:20.414Z,999.77
2017-12-31T06:36:20.410Z,999.80
2017-12-31T06:37:20.404Z,999.76
2017-12-31T06:38:20.394Z,999.74
2017-12-31T06:39:20.400Z,999.76
2017-12-31T06:40:20.393Z,999.79
2017-12-31T06:41:20.392Z,999.75
2017-12-31T06:42:20.387Z,999.75
2017-12-31T06:43:20.400Z,999.77
2017-12-31T06:44:20.378Z,999.74
2017-12-31T06:45:20.368Z,999.72
2017-12-31T06:46:20.359Z,999.70
2017-12-31T06:47:20.360Z,999.67
2017-12-31T06:48:20.354Z,999.63
2017-12-31T06:49:20.352Z,999.59
2017-12-31T06:50:20.351Z,999.61
2017-12-31T06:51:20.350Z,999.59
2017-12-31T06:52:20.342Z,999.59
2017-12-31T06:53:20.336Z,999.59
2017-12-31T06:54:20.327Z,999.62
2017-12-31T06:55:20.320Z,999.66
2017-12-31T06:56:20.319Z,999.66
2017-12-31T06:57:20.314Z,999.67
2017-12-31T06:58:20.311Z,999.66
2017-12-31T06:59:20.306Z,999.68
2017-12-31T07:00:20.302Z,999.66
2017-12-31T07:01:20.305Z,999.60
2017-12-31T07:02:20.291Z,999.59
2017-12-31T07:03:20.293Z,999.60
2017-12-31T07:04:20.283Z,999.61
2017-12-31T07:05:20.278Z,999.62
2017-12-31T07:06:20.273Z,999.59
2017-12-31T07:07:20.269Z,999.57
2017-12-31T07:08:20.266Z,999.57
2017-12-31T07:09:20.260Z,999.58
2017-12-31T07:10:20.264Z,999.54
2017-12-31T07:11:20.250Z,999.58
2017-12-31T07:12:20.246Z,999.59
2017-12-31T07:13:20.240Z,999.60
2017-12-31T07:14:20.235Z,999.61
2017-12-31T07:15:20.236Z,999.60
2017-12-31T07:16:20.230Z,999.63
2017-12-31T07:17:20.223Z,999.62
2017-12-31T07:18:20.224Z,999.68
2017-12-31T07:19:20.221Z,999.66
2017-12-31T07:20:20.215Z,999.64
2017-12-31T07:21:20.208Z,999.65
2017-12-31T07:22:20.204Z,999.67
2017-12-31T07:23:20.197Z,999.62
2017-12-31T07:24:20.191Z,999.62
2017-12-31T07:25:20.190Z,999.69
2017-12-31T07:26:20.183Z,999.70
2017-12-31T07:27:20.181Z,999.77
2017-12-31T07:28:20.178Z,999.78
2017-12-31T07:29:20.171Z,999.80
2017-12-31T07:30:20.165Z,999.79
2017-12-31T07:31:20.160Z,999.76
2017-12-31T07:32:20.155Z,999.79
2017-12-31T07:33:20.153Z,999.79
2017-12-31T07:34:20.151Z,999.82
2017-12-31T07:35:20.144Z,999.84
2017-12-31T07:36:20.140Z,999.78
2017-12-31T07:37:20.136Z,999.77
2017-12-31T07:38:20.132Z,999.78
2017-12-31T07:39:20.129Z,999.78
2017-12-31T07:40:20.123Z,999.77
2017-12-31T07:41:20.120Z,999.75
2017-12-31T07:42:20.115Z,999.78
2017-12-31T07:43:20.112Z,999.81
2017-12-31T07:44:20.110Z,999.75
2017-12-31T07:45:20.104Z,999.72
2017-12-31T07:46:20.100Z,999.72
2017-12-31T07:47:20.103Z,999.66
2017-12-31T07:48:20.091Z,999.68
2017-12-31T07:49:20.089Z,999.66
2017-12-31T07:50:20.081Z,999.69
2017-12-31T07:51:20.075Z,999.71
2017-12-31T07:52:20.075Z,999.72
2017-12-31T07:53:20.092Z,999.71
2017-12-31T07:54:20.069Z,999.69
2017-12-31T07:55:20.062Z,999.69
2017-12-31T07:56:20.057Z,999.71
2017-12-31T07:57:20.054Z,999.71
2017-12-31T07:58:20.050Z,999.72
2017-12-31T07:59:20.048Z,999.72
2017-12-31T08:00:20.042Z,999.74
2017-12-31T08:01:20.042Z,999.76
2017-12-31T08:02:20.033Z,999.72
2017-12-31T08:03:20.104Z,999.74
2017-12-31T08:04:20.029Z,999.78
2017-12-31T08:05:20.023Z,999.76
2017-12-31T08:06:20.020Z,999.77
2017-12-31T08:07:20.017Z,999.77
2017-12-31T08:08:20.013Z,999.79
2017-12-31T08:09:20.007Z,999.76
2017-12-31T08:10:19.997Z,999.77
2017-12-31T08:11:20.003Z,999.74
2017-12-31T08:12:19.994Z,999.74
2017-12-31T08:13:19.991Z,999.74
2017-12-31T08:14:19.991Z,999.77
2017-12-31T08:15:19.984Z,999.74
2017-12-31T08:16:19.987Z,999.73
2017-12-31T08:17:19.976Z,999.71
2017-12-31T08:18:19.978Z,999.74
2017-12-31T08:19:19.969Z,999.72
2017-12-31T08:20:19.963Z,999.72
2017-12-31T08:21:19.966Z,999.75
2017-12-31T08:22:19.958Z,999.71
2017-12-31T08:23:19.955Z,999.73
2017-12-31T08:24:19.955Z,999.68
2017-12-31T08:25:19.947Z,999.68
2017-12-31T08:26:19.950Z,999.67
2017-12-31T08:27:19.942Z,999.65
2017-12-31T08:28:19.939Z,999.64
2017-12-31T08:29:19.933Z,999.64
2017-12-31T08:30:19.926Z,999.65
2017-12-31T08:31:19.925Z,999.62
2017-12-31T08:32:19.924Z,999.65
2017-12-31T08:33:19.919Z,999.66
2017-12-31T08:34:19.917Z,999.66
2017-12-31T08:35:19.915Z,999.62
2017-12-31T08:36:19.908Z,999.61
2017-12-31T08:37:19.902Z,999.60
2017-12-31T08:38:19.901Z,999.59
2017-12-31T08:39:19.946Z,999.64
2017-12-31T08:40:19.895Z,999.62
2017-12-31T08:41:19.888Z,999.61
2017-12-31T08:42:19.885Z,999.59
2017-12-31T08:43:19.882Z,999.57
2017-12-31T08:44:19.887Z,999.60
2017-12-31T08:45:19.887Z,999.64
2017-12-31T08:46:19.870Z,999.59
2017-12-31T08:47:19.868Z,999.58
2017-12-31T08:48:19.868Z,999.56
2017-12-31T08:49:19.859Z,999.54
2017-12-31T08:50:19.855Z,999.49
2017-12-31T08:51:19.853Z,999.46
2017-12-31T08:52:19.851Z,999.46
2017-12-31T08:53:19.848Z,999.46
2017-12-31T08:54:19.842Z,999.51
2017-12-31T08:55:19.839Z,999.45
2017-12-31T08:56:19.842Z,999.49
2017-12-31T08:57:19.831Z,999.49
2017-12-31T08:58:19.828Z,999.45
2017-12-31T08:59:19.831Z,999.46
2017-12-31T09:00:19.821Z,999.43
2017-12-31T09:01:19.820Z,999.48
2017-12-31T09:02:19.814Z,999.47
2017-12-31T09:03:19.812Z,999.48
2017-12-31T09:04:19.808Z,999.50
2017-12-31T09:05:19.806Z,999.53
2017-12-31T09:06:19.801Z,999.58
2017-12-31T09:07:19.798Z,999.57
2017-12-31T09:08:19.794Z,999.57
2017-12-31T09:09:19.792Z,999.54
2017-12-31T09:10:19.789Z,999.53
2017-12-31T09:11:19.783Z,999.55
2017-12-31T09:12:19.781Z,999.56
2017-12-31T09:13:19.773Z,999.56
2017-12-31T09:14:19.776Z,999.54
2017-12-31T09:15:19.772Z,999.55
2017-12-31T09:16:19.776Z,999.54
2017-12-31T09:17:19.762Z,999.53
2017-12-31T09:18:19.761Z,999.54
2017-12-31T09:19:19.759Z,999.53
2017-12-31T09:20:19.755Z,999.51
2017-12-31T09:21:19.753Z,999.53
2017-12-31T09:22:19.747Z,999.52
2017-12-31T09:23:19.741Z,999.47
2017-12-31T09:24:19.741Z,999.44
2017-12-31T09:25:19.741Z,999.49
2017-12-31T09:26:19.783Z,999.49
2017-12-31T09:27:19.731Z,999.48
2017-12-31T09:28:19.731Z,999.46
2017-12-31T09:29:19.726Z,999.50
2017-12-31T09:30:19.721Z,999.44
2017-12-31T09:31:19.720Z,999.45
2017-12-31T09:32:19.717Z,999.45
2017-12-31T09:33:19.711Z,999.38
2017-12-31T09:34:19.709Z,999.36
2017-12-31T09:35:19.706Z,999.37
2017-12-31T09:36:19.704Z,999.36
2017-12-31T09:37:19.699Z,999.36
2017-12-31T09:38:19.696Z,999.34
2017-12-31T09:39:19.719Z,999.38
2017-12-31T09:40:19.728Z,999.35
2017-12-31T09:41:19.685Z,999.34
2017-12-31T09:42:19.687Z,999.29
2017-12-31T09:43:19.726Z,999.22
2017-12-31T09:44:19.679Z,999.21
2017-12-31T09:45:19.673Z,999.17
2017-12-31T09:46:19.677Z,999.16
2017-12-31T09:47:19.668Z,999.13
2017-12-31T09:48:19.664Z,999.14
2017-12-31T09:49:19.659Z,999.08
2017-12-31T09:50:19.659Z,999.08
2017-12-31T09:51:19.655Z,999.03
2017-12-31T09:52:19.653Z,999.06
2017-12-31T09:53:19.647Z,999.07
2017-12-31T09:54:19.640Z,999.03
2017-12-31T09:55:19.643Z,999.05
2017-12-31T09:56:19.638Z,999.04
2017-12-31T09:57:19.633Z,998.96
2017-12-31T09:58:19.631Z,998.97
2017-12-31T09:59:19.661Z,998.95
2017-12-31T10:00:19.630Z,998.90
2017-12-31T10:01:19.619Z,998.90
2017-12-31T10:02:19.618Z,998.86
2017-12-31T10:03:19.613Z,998.84
2017-12-31T10:04:19.613Z,998.85
2017-12-31T10:05:19.612Z,998.80
2017-12-31T10:06:19.621Z,998.86
2017-12-31T10:07:19.602Z,998.82
2017-12-31T10:08:19.598Z,998.77
2017-12-31T10:09:19.594Z,998.76
2017-12-31T10:10:19.594Z,998.75
2017-12-31T10:11:19.591Z,998.75
2017-12-31T10:12:19.585Z,998.72
2017-12-31T10:13:19.583Z,998.73
2017-12-31T10:14:19.584Z,998.66
2017-12-31T10:15:19.578Z,998.65
2017-12-31T10:16:19.576Z,998.63
2017-12-31T10:17:19.572Z,998.63
2017-12-31T10:18:19.569Z,998.59
2017-12-31T10:19:19.564Z,998.59
2017-12-31T10:20:19.560Z,998.62
2017-12-31T10:21:19.569Z,998.59
2017-12-31T10:22:19.556Z,998.53
2017-12-31T10:23:19.551Z,998.53
2017-12-31T10:24:19.549Z,998.53
2017-12-31T10:25:19.544Z,998.50
2017-12-31T10:26:19.541Z,998.48
2017-12-31T10:27:19.539Z,998.47
2017-12-31T10:28:19.547Z,998.47
2017-12-31T10:29:19.531Z,998.48
2017-12-31T10:30:19.532Z,998.45
2017-12-31T10:31:19.526Z,998.43
2017-12-31T10:32:19.523Z,998.43
2017-12-31T10:33:19.520Z,998.45
2017-12-31T10:34:19.515Z,998.41
2017-12-31T10:35:19.510Z,998.42
2017-12-31T10:36:19.514Z,998.37
2017-12-31T10:37:19.507Z,998.38
2017-12-31T10:38:19.513Z,998.33
2017-12-31T10:39:19.500Z,998.36
2017-12-31T10:40:19.499Z,998.35
2017-12-31T10:41:19.495Z,998.32
2017-12-31T10:42:19.493Z,998.32
2017-12-31T10:43:19.491Z,998.33
2017-12-31T10:44:19.487Z,998.30
2017-12-31T10:45:19.482Z,998.33
2017-12-31T10:46:19.476Z,998.27
2017-12-31T10:47:19.476Z,998.25
2017-12-31T10:48:19.472Z,998.20
2017-12-31T10:49:19.472Z,998.23
2017-12-31T10:50:19.467Z,998.19
2017-12-31T10:51:19.464Z,998.19
2017-12-31T10:52:19.460Z,998.14
2017-12-31T10:53:19.457Z,998.10
2017-12-31T10:54:19.454Z,998.05
2017-12-31T10:55:19.453Z,998.07
2017-12-31T10:56:19.450Z,998.04
2017-12-31T10:57:19.450Z,998.03
2017-12-31T10:58:19.442Z,998.04
2017-12-31T10:59:19.441Z,998.03
2017-12-31T11:00:19.436Z,998.00
2017-12-31T11:01:19.433Z,997.94
2017-12-31T11:02:19.430Z,997.96
2017-12-31T11:03:19.473Z,997.94
2017-12-31T11:04:19.424Z,997.95
2017-12-31T11:05:19.422Z,997.89
2017-12-31T11:06:19.419Z,997.94
2017-12-31T11:07:19.415Z,997.91
2017-12-31T11:08:19.414Z,997.91
2017-12-31T11:09:19.409Z,997.85
2017-12-31T11:10:19.407Z,997.86
2017-12-31T11:11:19.407Z,997.85
2017-12-31T11:12:19.400Z,997.78
2017-12-31T11:13:19.396Z,997.80
2017-12-31T11:14:19.394Z,997.81
2017-12-31T11:15:19.392Z,997.82
2017-12-31T11:16:19.392Z,997.77
2017-12-31T11:17:19.385Z,997.74
2017-12-31T11:18:19.383Z,997.72
2017-12-31T11:19:19.378Z,997.73
2017-12-31T11:20:19.382Z,997.71
2017-12-31T11:21:19.374Z,997.72
2017-12-31T11:22:19.370Z,997.71
2017-12-31T11:23:19.371Z,997.75
2017-12-31T11:24:19.364Z,997.75
2017-12-31T11:25:19.359Z,997.73
2017-12-31T11:26:19.359Z,997.70
2017-12-31T11:27:19.355Z,997.70
2017-12-31T11:28:19.352Z,997.68
2017-12-31T11:29:19.349Z,997.71
2017-12-31T11:30:19.348Z,997.66
2017-12-31T11:31:19.343Z,997.66
2017-12-31T11:32:19.341Z,997.66
2017-12-31T11:33:19.338Z,997.67
2017-12-31T11:34:19.337Z,997.71
2017-12-31T11:35:19.332Z,997.66
2017-12-31T11:36:19.329Z,997.71
2017-12-31T11:37:19.325Z,997.67
2017-12-31T11:38:19.323Z,997.67
2017-12-31T11:39:19.318Z,997.67
2017-12-31T11:40:19.324Z,997.70
2017-12-31T11:41:19.314Z,997.66
2017-12-31T11:42:19.311Z,997.63
2017-12-31T11:43:19.310Z,997.60
2017-12-31T11:44:19.307Z,997.58
2017-12-31T11:45:19.308Z,997.54
2017-12-31T11:46:19.304Z,997.53
2017-12-31T11:47:19.301Z,997.52
2017-12-31T11:48:19.298Z,997.51
2017-12-31T11:49:19.293Z,997.46
2017-12-31T11:50:19.292Z,997.49
2017-12-31T11:51:19.293Z,997.50
2017-12-31T11:52:19.287Z,997.46
2017-12-31T11:53:19.283Z,997.48
2017-12-31T11:54:19.282Z,997.52
2017-12-31T11:55:19.279Z,997.47
2017-12-31T11:56:19.278Z,997.43
2017-12-31T11:57:19.280Z,997.45
2017-12-31T11:58:19.270Z,997.39
2017-12-31T11:59:19.268Z,997.42
2017-12-31T12:00:19.267Z,997.37
2017-12-31T12:01:19.266Z,997.48
2017-12-31T12:02:19.261Z,997.50
2017-12-31T12:03:19.261Z,997.46
2017-12-31T12:04:19.255Z,997.47
2017-12-31T12:05:19.251Z,997.45
2017-12-31T12:06:19.251Z,997.39
2017-12-31T12:07:19.253Z,997.34
2017-12-31T12:08:19.245Z,997.33
2017-12-31T12:09:19.242Z,997.32
2017-12-31T12:10:19.244Z,997.31
2017-12-31T12:11:19.237Z,997.36
2017-12-31T12:12:19.235Z,997.38
2017-12-31T12:13:19.234Z,997.35
2017-12-31T12:14:19.234Z,997.32
2017-12-31T12:15:19.233Z,997.27
2017-12-31T12:16:19.227Z,997.25
2017-12-31T12:17:19.228Z,997.23
2017-12-31T12:18:19.222Z,997.24
2017-12-31T12:19:19.217Z,997.22
2017-12-31T12:20:19.242Z,997.21
2017-12-31T12:21:19.213Z,997.20
2017-12-31T12:22:19.208Z,997.21
2017-12-31T12:23:19.206Z,997.24
2017-12-31T12:24:19.208Z,997.22
2017-12-31T12:25:19.204Z,997.20
2017-12-31T12:26:19.205Z,997.20
2017-12-31T12:27:19.231Z,997.19
2017-12-31T12:28:19.199Z,997.17